createdAt,value
2023-09-18T00:00:24.823Z,15.63
2023-09-18T00:02:54.703Z,15.35
2023-09-18T00:05:24.555Z,15.51
2023-09-18T00:07:57.576Z,15.44
2023-09-18T00:10:27.422Z,15.19
2023-09-18T00:12:57.196Z,15.22
2023-09-18T00:15:27.992Z,15.13
2023-09-18T00:17:57.857Z,15.37
2023-09-18T00:20:28.498Z,14.81
2023-09-18T00:23:01.011Z,14.84
2023-09-18T00:25:32.087Z,14.69
2023-09-18T00:28:01.793Z,13.89
2023-09-18T00:30:32.711Z,13.87
2023-09-18T00:33:02.502Z,13.63
2023-09-18T00:35:32.522Z,12.86
2023-09-18T00:38:05.441Z,13.09
2023-09-18T00:40:35.165Z,12.82
2023-09-18T00:43:04.954Z,12.36
2023-09-18T00:45:34.932Z,12.10
2023-09-18T00:48:04.991Z,12.29
2023-09-18T00:50:35.337Z,11.82
2023-09-18T00:53:08.990Z,11.44
2023-09-18T00:55:40.837Z,11.15
2023-09-18T00:58:11.959Z,11.27
2023-09-18T01:00:42.218Z,10.81
2023-09-18T01:03:12.604Z,10.37
2023-09-18T01:05:42.446Z,10.37
2023-09-18T01:08:14.852Z,10.60
2023-09-18T01:10:51.503Z,10.23
2023-09-18T01:13:27.378Z,10.46
2023-09-18T01:16:02.147Z,10.33
2023-09-18T01:18:31.962Z,10.78
2023-09-18T01:21:01.895Z,9.97
2023-09-18T01:23:34.302Z,10.44
2023-09-18T01:26:04.331Z,9.63
2023-09-18T01:28:34.138Z,9.84
2023-09-18T01:31:04.804Z,10.04
2023-09-18T01:33:37.063Z,9.88
2023-09-18T01:36:08.903Z,10.76
2023-09-18T01:38:41.940Z,11.02
2023-09-18T01:41:12.998Z,11.13
2023-09-18T01:43:42.827Z,10.40
2023-09-18T01:46:13.433Z,10.72
2023-09-18T01:48:49.116Z,10.57
2023-09-18T01:51:19.436Z,10.28
2023-09-18T01:53:52.433Z,10.37
2023-09-18T01:56:22.197Z,10.15
2023-09-18T01:58:52.162Z,9.66
2023-09-18T02:01:22.885Z,9.76
2023-09-18T02:04:14.440Z,9.52
2023-09-18T02:06:44.131Z,9.33
2023-09-18T02:09:17.139Z,9.55
2023-09-18T02:11:48.172Z,9.30
2023-09-18T02:14:18.779Z,9.73
2023-09-18T02:16:48.604Z,8.95
2023-09-18T02:19:18.603Z,8.67
2023-09-18T02:21:48.388Z,9.32
2023-09-18T02:24:20.860Z,8.68
2023-09-18T02:26:50.794Z,8.99
2023-09-18T02:29:24.397Z,8.45
2023-09-18T02:31:54.619Z,8.54
2023-09-18T02:34:24.524Z,8.66
2023-09-18T02:36:54.270Z,8.57
2023-09-18T02:39:27.637Z,8.26
2023-09-18T02:41:57.873Z,8.16
2023-09-18T02:44:27.664Z,8.20
2023-09-18T02:46:57.459Z,8.31
2023-09-18T02:49:27.206Z,8.61
2023-09-18T02:51:58.654Z,8.40
2023-09-18T02:54:31.034Z,9.05
2023-09-18T02:57:01.103Z,8.75
2023-09-18T02:59:32.485Z,8.78
2023-09-18T03:02:02.534Z,8.68
2023-09-18T03:04:34.300Z,8.90
2023-09-18T03:07:05.040Z,8.40
2023-09-18T03:09:37.979Z,8.64
2023-09-18T03:12:08.083Z,8.61
2023-09-18T03:14:38.349Z,8.16
2023-09-18T03:17:08.468Z,8.23
2023-09-18T03:19:38.394Z,8.31
2023-09-18T03:22:08.399Z,8.25
2023-09-18T03:24:40.819Z,7.93
2023-09-18T03:27:10.643Z,8.42
2023-09-18T03:29:40.513Z,8.63
2023-09-18T03:32:13.744Z,8.53
2023-09-18T03:34:44.240Z,8.20
2023-09-18T03:37:14.296Z,8.20
2023-09-18T03:39:46.974Z,8.16
2023-09-18T03:42:17.080Z,9.20
2023-09-18T03:44:49.918Z,8.55
2023-09-18T03:47:19.668Z,8.70
2023-09-18T03:49:49.416Z,8.29
2023-09-18T03:52:19.383Z,8.19
2023-09-18T03:54:52.512Z,8.68
2023-09-18T03:57:22.629Z,8.76
2023-09-18T03:59:52.432Z,8.41
2023-09-18T04:02:22.329Z,8.09
2023-09-18T04:04:52.159Z,8.21
2023-09-18T04:07:21.915Z,7.35
2023-09-18T04:09:54.380Z,6.90
2023-09-18T04:12:24.214Z,7.25
2023-09-18T04:14:53.972Z,6.99
2023-09-18T04:17:24.639Z,6.59
2023-09-18T04:19:55.755Z,6.72
2023-09-18T04:22:25.450Z,6.72
2023-09-18T04:24:58.033Z,6.77
2023-09-18T04:27:27.780Z,6.77
2023-09-18T04:29:57.742Z,6.66
2023-09-18T04:32:28.052Z,6.76
2023-09-18T04:34:57.837Z,6.86
2023-09-18T04:37:27.648Z,6.85
2023-09-18T04:40:01.285Z,6.48
2023-09-18T04:42:31.329Z,6.60
2023-09-18T04:45:01.186Z,6.10
2023-09-18T04:47:31.324Z,6.55
2023-09-18T04:50:01.127Z,6.67
2023-09-18T04:52:31.026Z,6.73
2023-09-18T04:55:04.502Z,6.55
2023-09-18T04:57:36.087Z,6.31
2023-09-18T05:00:17.061Z,6.04
2023-09-18T05:02:48.282Z,5.73
2023-09-18T05:05:19.506Z,5.82
2023-09-18T05:07:50.055Z,5.86
2023-09-18T05:10:22.455Z,5.87
2023-09-18T05:12:59.997Z,5.63
2023-09-18T05:15:30.856Z,5.84
2023-09-18T05:18:01.722Z,5.70
2023-09-18T05:20:32.696Z,6.15
2023-09-18T05:23:04.050Z,6.14
2023-09-18T05:25:39.565Z,6.17
2023-09-18T05:28:09.999Z,6.56
2023-09-18T05:30:40.357Z,6.24
2023-09-18T05:33:11.101Z,5.82
2023-09-18T05:35:44.207Z,5.89
2023-09-18T05:38:15.249Z,5.55
2023-09-18T05:40:49.428Z,5.35
2023-09-18T05:43:19.378Z,5.28
2023-09-18T05:45:50.988Z,5.14
2023-09-18T05:48:23.817Z,5.07
2023-09-18T05:50:55.331Z,5.18
2023-09-18T05:53:25.312Z,5.10
2023-09-18T05:55:58.683Z,4.86
2023-09-18T05:58:29.171Z,4.90
2023-09-18T06:00:59.141Z,4.68
2023-09-18T06:03:31.957Z,4.88
2023-09-18T06:06:02.567Z,4.52
2023-09-18T06:08:32.874Z,4.63
2023-09-18T06:11:05.438Z,4.66
2023-09-18T06:13:35.636Z,4.57
2023-09-18T06:16:08.793Z,4.64
2023-09-18T06:18:39.865Z,4.68
2023-09-18T06:21:09.772Z,4.58
2023-09-18T06:23:39.503Z,4.72
2023-09-18T06:26:11.797Z,4.67
2023-09-18T06:28:41.558Z,4.33
2023-09-18T06:31:12.851Z,4.63
2023-09-18T06:33:42.600Z,4.75
2023-09-18T06:36:12.403Z,4.31
2023-09-18T06:38:42.183Z,4.87
2023-09-18T06:41:15.392Z,4.80
2023-09-18T06:43:45.185Z,4.34
2023-09-18T06:46:15.700Z,4.30
2023-09-18T06:48:50.860Z,4.11
2023-09-18T06:51:30.186Z,4.19
2023-09-18T06:54:07.037Z,3.74
2023-09-18T06:56:39.386Z,3.80
2023-09-18T06:59:09.180Z,3.63
2023-09-18T07:01:38.959Z,3.73
2023-09-18T07:04:09.197Z,3.62
2023-09-18T07:06:39.001Z,3.61
2023-09-18T07:09:09.003Z,3.46
2023-09-18T07:11:41.457Z,3.15
2023-09-18T07:14:11.297Z,2.89
2023-09-18T07:16:41.488Z,2.63
2023-09-18T07:19:13.217Z,2.47
2023-09-18T07:21:43.528Z,2.70
2023-09-18T07:24:20.621Z,2.51
2023-09-18T07:26:53.007Z,2.36
2023-09-18T07:29:22.770Z,2.00
2023-09-18T07:31:52.620Z,2.18
2023-09-18T07:34:22.378Z,2.02
2023-09-18T07:36:55.444Z,1.87
2023-09-18T07:39:25.209Z,1.94
2023-09-18T07:41:58.111Z,1.95
2023-09-18T07:44:27.841Z,1.97
2023-09-18T07:46:57.863Z,1.88
2023-09-18T07:49:27.597Z,1.69
2023-09-18T07:51:57.411Z,1.81
2023-09-18T07:54:27.202Z,1.88
2023-09-18T07:57:00.534Z,1.75
2023-09-18T07:59:30.532Z,1.83
2023-09-18T08:02:00.341Z,1.75
2023-09-18T08:04:30.106Z,1.92
2023-09-18T08:06:59.889Z,2.00
2023-09-18T08:09:30.718Z,1.89
2023-09-18T08:12:03.087Z,1.78
2023-09-18T08:14:33.019Z,1.70
2023-09-18T08:17:04.302Z,1.98
2023-09-18T08:19:34.217Z,2.12
2023-09-18T08:22:05.804Z,1.89
2023-09-18T08:24:35.692Z,2.00
2023-09-18T08:27:08.383Z,1.80
2023-09-18T08:29:38.109Z,1.70
2023-09-18T08:32:07.950Z,1.71
2023-09-18T08:34:37.785Z,1.89
2023-09-18T08:37:07.995Z,1.89
2023-09-18T08:39:39.030Z,1.84
2023-09-18T08:42:13.493Z,1.65
2023-09-18T08:44:46.734Z,1.89
2023-09-18T08:47:18.536Z,1.89
2023-09-18T08:49:49.132Z,1.80
2023-09-18T08:52:19.255Z,2.14
2023-09-18T08:54:49.925Z,1.88
2023-09-18T08:57:22.900Z,2.17
2023-09-18T08:59:54.672Z,2.10
2023-09-18T09:02:24.492Z,2.02
2023-09-18T09:04:54.371Z,2.20
2023-09-18T09:07:24.309Z,2.27
2023-09-18T09:09:54.524Z,2.14
2023-09-18T09:12:40.370Z,2.13
2023-09-18T09:15:13.385Z,2.32
2023-09-18T09:17:43.420Z,2.19
2023-09-18T09:20:14.247Z,2.05
2023-09-18T09:22:44.854Z,2.19
2023-09-18T09:25:27.979Z,2.25
2023-09-18T09:27:57.804Z,2.04
2023-09-18T09:30:31.496Z,2.18
2023-09-18T09:33:04.048Z,2.00
2023-09-18T09:35:35.386Z,2.03
2023-09-18T09:38:11.320Z,2.34
2023-09-18T09:40:44.264Z,2.04
2023-09-18T09:43:18.189Z,2.04
2023-09-18T09:45:51.017Z,2.19
2023-09-18T09:48:22.121Z,2.10
2023-09-18T09:50:53.116Z,2.31
2023-09-18T09:53:23.298Z,2.54
2023-09-18T09:55:58.556Z,2.42
2023-09-18T09:58:32.345Z,2.85
2023-09-18T10:01:10.363Z,2.77
2023-09-18T10:03:41.975Z,2.69
2023-09-18T10:06:14.420Z,2.86
2023-09-18T10:08:44.769Z,2.86
2023-09-18T10:11:18.168Z,2.87
2023-09-18T10:13:51.181Z,3.25
2023-09-18T10:16:29.460Z,2.70
2023-09-18T10:19:09.444Z,2.78
2023-09-18T10:21:45.343Z,2.83
2023-09-18T10:24:24.296Z,2.90
2023-09-18T10:26:59.655Z,2.69
2023-09-18T10:29:31.316Z,2.69
2023-09-18T10:32:06.529Z,2.58
2023-09-18T10:34:37.646Z,2.69
2023-09-18T10:37:09.316Z,2.64
2023-09-18T10:39:41.019Z,2.54
2023-09-18T10:42:11.989Z,2.48
2023-09-18T10:44:42.795Z,2.77
2023-09-18T10:47:16.034Z,2.59
2023-09-18T10:49:47.266Z,2.82
2023-09-18T10:52:17.977Z,2.62
2023-09-18T10:54:48.515Z,2.80
2023-09-18T10:57:18.531Z,2.69
2023-09-18T10:59:49.061Z,2.76
2023-09-18T11:02:21.858Z,2.80
2023-09-18T11:04:51.635Z,2.84
2023-09-18T11:07:26.012Z,2.31
2023-09-18T11:09:55.911Z,2.48
2023-09-18T11:12:45.680Z,2.58
2023-09-18T11:15:30.002Z,2.64
2023-09-18T11:18:09.201Z,2.60
2023-09-18T11:20:39.566Z,2.97
2023-09-18T11:23:20.063Z,2.76
2023-09-18T11:25:49.937Z,3.02
2023-09-18T11:28:21.191Z,2.68
2023-09-18T11:31:00.368Z,2.74
2023-09-18T11:33:40.458Z,2.78
2023-09-18T11:36:13.719Z,3.03
2023-09-18T11:38:58.953Z,3.16
2023-09-18T11:41:31.100Z,2.94
2023-09-18T11:44:17.859Z,3.02
2023-09-18T11:46:51.784Z,3.12
2023-09-18T11:49:27.964Z,3.07
2023-09-18T11:51:58.184Z,2.90
2023-09-18T11:54:28.010Z,3.14
2023-09-18T11:56:58.843Z,2.73
2023-09-18T11:59:44.895Z,3.03
2023-09-18T12:02:22.161Z,3.24
2023-09-18T12:04:55.072Z,3.01
2023-09-18T12:07:25.982Z,2.92
2023-09-18T12:09:56.936Z,2.84
2023-09-18T12:12:27.270Z,3.03
2023-09-18T12:14:57.835Z,3.08
2023-09-18T12:17:27.560Z,2.85
2023-09-18T12:20:00.169Z,2.90
2023-09-18T12:22:30.683Z,2.84
2023-09-18T12:25:15.990Z,2.76
2023-09-18T12:27:47.138Z,2.84
2023-09-18T12:30:22.374Z,2.67
2023-09-18T12:32:53.301Z,2.76
2023-09-18T12:35:30.658Z,3.01
2023-09-18T12:38:00.869Z,3.05
2023-09-18T12:40:31.476Z,3.16
2023-09-18T12:43:02.472Z,2.95
2023-09-18T12:45:33.362Z,2.93
2023-09-18T12:48:05.057Z,2.78
2023-09-18T12:50:37.935Z,3.20
2023-09-18T12:53:11.529Z,3.04
2023-09-18T12:55:42.113Z,3.19
2023-09-18T12:58:15.164Z,2.89
2023-09-18T13:00:50.906Z,3.05
2023-09-18T13:03:21.005Z,3.05
2023-09-18T13:05:56.181Z,2.82
2023-09-18T13:08:27.606Z,2.79
2023-09-18T13:10:57.359Z,2.97
2023-09-18T13:13:27.301Z,2.76
2023-09-18T13:16:01.911Z,3.15
2023-09-18T13:18:32.052Z,2.83
2023-09-18T13:21:04.870Z,2.80
2023-09-18T13:23:36.169Z,3.01
2023-09-18T13:26:07.071Z,3.13
2023-09-18T13:28:37.529Z,2.80
2023-09-18T13:31:09.082Z,2.77
2023-09-18T13:33:46.186Z,2.76
2023-09-18T13:36:19.246Z,2.61
2023-09-18T13:38:49.057Z,2.78
2023-09-18T13:41:18.929Z,2.42
2023-09-18T13:43:50.161Z,2.56
2023-09-18T13:46:19.956Z,2.46
2023-09-18T13:48:49.853Z,2.79
2023-09-18T13:51:22.274Z,2.55
2023-09-18T13:53:51.982Z,2.54
2023-09-18T13:56:22.287Z,2.51
2023-09-18T13:58:52.284Z,2.63
2023-09-18T14:01:22.134Z,2.53
2023-09-18T14:03:52.163Z,2.72
2023-09-18T14:06:24.638Z,2.61
2023-09-18T14:08:54.435Z,2.56
2023-09-18T14:11:24.227Z,2.43
2023-09-18T14:13:53.977Z,2.54
2023-09-18T14:16:23.703Z,2.53
2023-09-18T14:18:55.355Z,2.57
2023-09-18T14:21:31.677Z,2.48
2023-09-18T14:24:01.697Z,2.65
2023-09-18T14:26:31.636Z,2.37
2023-09-18T14:29:01.397Z,2.53
2023-09-18T14:31:31.309Z,2.40
2023-09-18T14:34:01.504Z,2.31
2023-09-18T14:36:35.642Z,2.63
2023-09-18T14:39:07.173Z,2.65
2023-09-18T14:41:37.052Z,2.55
2023-09-18T14:44:07.029Z,2.41
2023-09-18T14:46:38.034Z,2.58
2023-09-18T14:49:08.589Z,2.50
2023-09-18T14:51:42.200Z,2.38
2023-09-18T14:54:12.203Z,2.32
2023-09-18T14:56:42.337Z,2.40
2023-09-18T14:59:12.099Z,2.22
2023-09-18T15:01:44.128Z,2.36
2023-09-18T15:04:14.696Z,2.51
2023-09-18T15:06:47.706Z,2.46
2023-09-18T15:09:18.981Z,2.53
2023-09-18T15:11:48.892Z,2.29
2023-09-18T15:14:19.120Z,2.25
2023-09-18T15:16:48.936Z,2.35
2023-09-18T15:19:20.757Z,2.35
2023-09-18T15:21:54.296Z,2.37
2023-09-18T15:24:24.150Z,2.31
2023-09-18T15:26:54.239Z,2.25
2023-09-18T15:29:24.087Z,2.09
2023-09-18T15:31:53.879Z,2.20
2023-09-18T15:34:25.089Z,2.16
2023-09-18T15:36:57.535Z,2.21
2023-09-18T15:39:28.717Z,2.22
2023-09-18T15:41:58.561Z,2.12
2023-09-18T15:44:28.277Z,2.17
2023-09-18T15:46:58.089Z,2.22
2023-09-18T15:49:28.231Z,1.97
2023-09-18T15:52:00.664Z,2.02
2023-09-18T15:54:30.474Z,1.99
2023-09-18T15:57:00.382Z,1.98
2023-09-18T15:59:30.676Z,2.08
2023-09-18T16:02:00.658Z,2.09
2023-09-18T16:04:30.575Z,2.19
2023-09-18T16:07:02.912Z,2.13
2023-09-18T16:09:32.743Z,1.23
2023-09-18T16:12:05.081Z,1.13
2023-09-18T16:14:35.020Z,1.16
2023-09-18T16:17:05.519Z,1.36
2023-09-18T16:19:35.335Z,1.32
2023-09-18T16:22:07.978Z,1.57
2023-09-18T16:24:37.756Z,1.58
2023-09-18T16:27:09.019Z,1.64
2023-09-18T16:29:39.141Z,1.48
2023-09-18T16:32:09.779Z,1.51
2023-09-18T16:34:39.594Z,1.36
2023-09-18T16:37:12.087Z,1.49
2023-09-18T16:39:43.159Z,1.51
2023-09-18T16:42:12.839Z,1.36
2023-09-18T16:44:43.951Z,1.45
2023-09-18T16:47:13.847Z,1.38
2023-09-18T16:49:43.652Z,1.37
2023-09-18T16:52:15.977Z,1.28
2023-09-18T16:54:50.222Z,1.31
2023-09-18T16:57:20.795Z,1.23
2023-09-18T16:59:50.639Z,1.51
2023-09-18T17:02:21.884Z,1.47
2023-09-18T17:04:52.264Z,1.35
2023-09-18T17:07:24.782Z,1.47
2023-09-18T17:09:54.499Z,1.67
2023-09-18T17:12:24.341Z,1.57
2023-09-18T17:14:54.200Z,1.64
2023-09-18T17:17:24.117Z,1.76
2023-09-18T17:19:53.909Z,1.91
2023-09-18T17:22:26.293Z,1.74
2023-09-18T17:24:56.050Z,1.81
2023-09-18T17:27:25.815Z,1.96
2023-09-18T17:29:59.258Z,1.99
2023-09-18T17:32:30.217Z,1.97
2023-09-18T17:35:00.014Z,2.13
2023-09-18T17:37:32.697Z,2.01
2023-09-18T17:40:02.493Z,2.08
2023-09-18T17:42:32.320Z,2.16
2023-09-18T17:45:02.109Z,2.04
2023-09-18T17:47:33.164Z,2.24
2023-09-18T17:50:02.989Z,2.30
2023-09-18T17:52:35.378Z,2.30
2023-09-18T17:55:07.193Z,2.20
2023-09-18T17:57:38.925Z,2.30
2023-09-18T18:00:13.319Z,2.31
2023-09-18T18:02:44.526Z,2.27
2023-09-18T18:05:14.846Z,2.54
2023-09-18T18:07:48.367Z,2.67
2023-09-18T18:10:18.091Z,2.58
2023-09-18T18:12:50.136Z,2.63
2023-09-18T18:15:19.869Z,2.57
2023-09-18T18:17:50.001Z,2.89
2023-09-18T18:20:22.568Z,2.51
2023-09-18T18:22:58.463Z,2.69
2023-09-18T18:25:28.514Z,2.61
2023-09-18T18:27:58.447Z,2.83
2023-09-18T18:30:28.339Z,2.76
2023-09-18T18:32:58.136Z,2.87
2023-09-18T18:35:27.890Z,2.65
2023-09-18T18:38:00.181Z,3.11
2023-09-18T18:40:29.889Z,2.92
2023-09-18T18:43:01.580Z,3.15
2023-09-18T18:45:31.421Z,3.26
2023-09-18T18:48:02.522Z,3.07
2023-09-18T18:50:32.530Z,3.08
2023-09-18T18:53:05.421Z,3.02
2023-09-18T18:55:35.838Z,2.97
2023-09-18T18:58:07.642Z,3.00
2023-09-18T19:00:37.592Z,2.75
2023-09-18T19:03:09.631Z,2.82
2023-09-18T19:05:42.538Z,3.10
2023-09-18T19:08:14.960Z,3.12
2023-09-18T19:10:44.726Z,2.85
2023-09-18T19:13:14.782Z,2.60
2023-09-18T19:15:44.521Z,2.73
2023-09-18T19:18:14.433Z,2.86
2023-09-18T19:20:44.350Z,2.56
2023-09-18T19:25:51.674Z,2.61
2023-09-18T19:28:21.890Z,2.86
2023-09-18T19:30:58.279Z,3.07
2023-09-18T19:33:29.568Z,2.80
2023-09-18T19:36:00.529Z,2.67
2023-09-18T19:38:33.429Z,2.67
2023-09-18T19:41:04.862Z,2.59
2023-09-18T19:43:34.997Z,2.61
2023-09-18T19:46:04.819Z,2.67
2023-09-18T19:48:34.963Z,2.26
2023-09-18T19:51:05.673Z,2.46
2023-09-18T19:53:38.152Z,2.67
2023-09-18T19:56:08.062Z,2.44
2023-09-18T19:58:37.874Z,2.45
2023-09-18T20:01:08.102Z,2.62
2023-09-18T20:03:37.987Z,2.60
2023-09-18T20:06:10.141Z,2.69
2023-09-18T20:08:43.064Z,2.66
2023-09-18T20:11:13.126Z,2.59
2023-09-18T20:13:42.840Z,2.47
2023-09-18T20:16:12.638Z,2.57
2023-09-18T20:18:43.573Z,2.54
2023-09-18T20:21:13.707Z,2.44
2023-09-18T20:23:46.557Z,2.38
2023-09-18T20:26:16.397Z,2.17
2023-09-18T20:28:47.403Z,2.25
2023-09-18T20:31:20.715Z,2.26
2023-09-18T20:33:52.568Z,2.29
2023-09-18T20:36:24.942Z,2.21
2023-09-18T20:38:57.496Z,2.27
2023-09-18T20:41:28.054Z,2.29
2023-09-18T20:43:57.804Z,2.37
2023-09-18T20:46:27.788Z,2.27
2023-09-18T20:51:31.929Z,2.31
2023-09-18T20:54:04.955Z,2.30
2023-09-18T20:56:35.803Z,2.39
2023-09-18T20:59:07.382Z,2.38
2023-09-18T21:01:37.203Z,2.24
2023-09-18T21:04:07.741Z,2.16
2023-09-18T21:06:38.068Z,2.49
2023-09-18T21:09:12.927Z,2.05
2023-09-18T21:11:43.312Z,2.16
2023-09-18T21:14:13.307Z,2.45
2023-09-18T21:16:43.081Z,2.39
2023-09-18T21:19:12.806Z,2.38
2023-09-18T21:21:42.661Z,2.51
2023-09-18T21:24:15.346Z,2.47
2023-09-18T21:26:45.153Z,2.71
2023-09-18T21:29:14.984Z,2.43
2023-09-18T21:31:46.636Z,2.51
2023-09-18T21:34:19.143Z,2.50
2023-09-18T21:36:50.400Z,2.81
2023-09-18T21:39:23.532Z,2.57
2023-09-18T21:41:56.485Z,2.77
2023-09-18T21:44:26.279Z,2.57
2023-09-18T21:46:56.115Z,2.44
2023-09-18T21:49:27.204Z,2.56
2023-09-18T21:51:57.051Z,2.65
2023-09-18T21:54:29.417Z,2.56
2023-09-18T21:56:59.176Z,2.77
2023-09-18T21:59:28.931Z,2.68
2023-09-18T22:01:58.609Z,3.02
2023-09-18T22:04:28.365Z,3.24
2023-09-18T22:06:58.229Z,3.14
2023-09-18T22:09:30.576Z,3.19
2023-09-18T22:12:04.251Z,3.03
2023-09-18T22:14:34.240Z,3.23
2023-09-18T22:17:04.008Z,3.43
2023-09-18T22:19:33.715Z,3.35
2023-09-18T22:22:03.437Z,3.78
2023-09-18T22:24:35.769Z,3.74
2023-09-18T22:27:05.796Z,3.74
2023-09-18T22:29:35.514Z,4.08
2023-09-18T22:32:05.442Z,3.93
2023-09-18T22:34:35.159Z,3.60
2023-09-18T22:37:06.053Z,3.70
2023-09-18T22:39:44.828Z,3.69
2023-09-18T22:42:14.614Z,4.08
2023-09-18T22:44:59.351Z,3.92
2023-09-18T22:47:44.248Z,3.45
2023-09-18T22:50:31.053Z,4.05
2023-09-18T22:53:02.043Z,4.37
2023-09-18T22:55:35.296Z,4.25
2023-09-18T22:58:06.176Z,4.35
2023-09-18T23:00:37.757Z,4.78
2023-09-18T23:03:10.014Z,4.78
2023-09-18T23:05:40.739Z,4.59
2023-09-18T23:08:11.397Z,4.64
2023-09-18T23:10:43.681Z,4.52
2023-09-18T23:13:13.703Z,5.03
2023-09-18T23:15:44.780Z,5.04
2023-09-18T23:18:20.380Z,5.11
2023-09-18T23:20:50.143Z,4.70
2023-09-18T23:23:19.917Z,4.31
2023-09-18T23:25:57.099Z,4.14
2023-09-18T23:28:27.987Z,4.33
2023-09-18T23:30:59.970Z,4.70
2023-09-18T23:33:29.748Z,4.88
2023-09-18T23:36:00.309Z,4.97
2023-09-18T23:38:32.532Z,4.21
2023-09-18T23:41:06.147Z,4.46
2023-09-18T23:43:38.443Z,4.57
2023-09-18T23:46:12.177Z,4.55
2023-09-18T23:48:43.429Z,4.88
2023-09-18T23:51:13.240Z,5.08
2023-09-18T23:53:42.902Z,5.02
2023-09-18T23:56:17.828Z,4.86
2023-09-18T23:58:50.109Z,4.63
